TAF Text Data
IDs:
Format:
Raw Decoded Include METAR

Data at: 0732 UTC 22 Jan 2021

TAF for:KCLT (Charlotte/Douglas In, NC, US) issued at 0539 UTC 22 Jan 2021
Text:KCLT 220539Z 2206/2312 00000KT P6SM OVC250
Forecast period:0600 to 1400 UTC 22 January 2021
Forecast type:FROM: standard forecast or significant change
Winds:calm
Visibility:6 or more sm (10+ km)
Ceiling:25000 feet AGL
Clouds: overcast cloud deck at 25000 feet AGL
Text:FM221400 25005KT P6SM OVC250
Forecast period:1400 to 2300 UTC 22 January 2021
Forecast type:FROM: standard forecast or significant change
Winds:from the WSW (250 degrees) at 6 MPH (5 knots; 2.6 m/s)
Visibility:6 or more sm (10+ km)
Ceiling:25000 feet AGL
Clouds: overcast cloud deck at 25000 feet AGL
Text:FM222300 29004KT P6SM SCT250
Forecast period:2300 UTC 22 January 2021 to 0200 UTC 23 January 2021
Forecast type:FROM: standard forecast or significant change
Winds:from the WNW (290 degrees) at 5 MPH (4 knots; 2.1 m/s)
Visibility:6 or more sm (10+ km)
Ceiling:at least 12,000 feet AGL
Clouds: scattered clouds at 25000 feet AGL
Text:FM230200 33004KT P6SM FEW250
Forecast period:0200 to 1200 UTC 23 January 2021
Forecast type:FROM: standard forecast or significant change
Winds:from the NNW (330 degrees) at 5 MPH (4 knots; 2.1 m/s)
Visibility:6 or more sm (10+ km)
Ceiling:at least 12,000 feet AGL
Clouds: few clouds at 25000 feet AGL